Time;durP1;ratioP1;P1;durP2;ratioP2;P2;SDS_P1;SDS_P2;PMS_P1;PMS_P2;Temp;Humidity;BMP_temperature;BMP_pressure;BME280_temperature;BME280_humidity;BME280_pressure;Samples;Min_cycle;Max_cycle;Signal;HPM_P1;HPM_P2
2023/08/23 00:00:16;;;;;;;12.45;9.85;;;25.30;69.80;;;;;;5117636;28;20042;-69
2023/08/23 00:02:42;;;;;;;15.55;10.48;;;25.20;69.70;;;;;;5116025;28;20031;-69
2023/08/23 00:05:08;;;;;;;14.82;9.30;;;25.10;69.80;;;;;;5117549;28;20035;-69
2023/08/23 00:07:34;;;;;;;14.23;10.48;;;25.10;69.90;;;;;;5116955;28;20042;-69
2023/08/23 00:10:00;;;;;;;13.63;9.90;;;25.10;70.00;;;;;;5116908;28;20460;-69
2023/08/23 00:12:26;;;;;;;13.93;9.52;;;25.00;70.00;;;;;;5117022;28;20088;-69
2023/08/23 00:14:52;;;;;;;12.98;9.35;;;25.00;70.10;;;;;;5116808;28;20026;-69
2023/08/23 00:17:18;;;;;;;12.70;9.68;;;25.00;70.20;;;;;;5117224;28;20110;-69
2023/08/23 00:19:46;;;;;;;13.38;9.27;;;25.00;70.30;;;;;;5116726;28;20441;-69
2023/08/23 00:22:12;;;;;;;12.55;9.63;;;25.00;70.20;;;;;;5116871;28;20077;-69
2023/08/23 00:24:38;;;;;;;13.57;10.05;;;24.90;70.30;;;;;;5116652;28;20048;-69
2023/08/23 00:27:04;;;;;;;14.07;10.40;;;24.90;70.40;;;;;;5115641;28;20062;-69
2023/08/23 00:29:30;;;;;;;15.60;11.80;;;24.90;70.40;;;;;;5117056;28;20051;-69
2023/08/23 00:31:56;;;;;;;16.92;11.70;;;24.90;70.60;;;;;;5116790;28;20062;-69
2023/08/23 00:34:22;;;;;;;14.55;11.18;;;24.90;70.70;;;;;;5116412;27;20499;-69
2023/08/23 00:36:48;;;;;;;14.20;11.05;;;24.90;70.60;;;;;;5116346;28;20076;-69
2023/08/23 00:39:15;;;;;;;14.43;11.13;;;24.90;70.80;;;;;;5116364;28;20031;-69
2023/08/23 00:41:43;;;;;;;16.17;11.27;;;24.90;70.70;;;;;;5116259;28;20034;-69
2023/08/23 00:44:08;;;;;;;14.32;10.73;;;24.90;70.60;;;;;;5116129;28;20044;-69
2023/08/23 00:46:35;;;;;;;15.13;10.75;;;24.90;70.70;;;;;;5116786;28;20051;-69
2023/08/23 00:49:00;;;;;;;15.93;10.77;;;24.90;70.90;;;;;;5116206;28;20467;-69
2023/08/23 00:51:26;;;;;;;17.05;10.50;;;24.90;70.80;;;;;;5115990;28;20130;-69
2023/08/23 00:53:52;;;;;;;12.43;9.60;;;24.80;71.00;;;;;;5116172;28;20034;-69
2023/08/23 00:56:19;;;;;;;14.40;10.27;;;24.90;71.10;;;;;;5116300;28;20019;-70
2023/08/23 00:58:45;;;;;;;13.10;9.85;;;24.80;71.20;;;;;;5116052;28;20436;-69
2023/08/23 01:01:11;;;;;;;19.15;12.63;;;24.80;71.30;;;;;;5116499;28;20034;-69
2023/08/23 01:03:37;;;;;;;15.63;10.55;;;24.80;71.40;;;;;;5115936;28;20015;-69
2023/08/23 01:06:19;;;;;;;15.40;10.30;;;24.80;71.50;;;;;;5115971;28;20055;-69
2023/08/23 01:09:10;;;;;;;14.75;11.00;;;24.80;71.80;;;;;;5116022;28;20071;-69
2023/08/23 01:11:47;;;;;;;12.27;10.38;;;24.80;71.50;;;;;;5116116;27;20028;-69
2023/08/23 01:14:39;;;;;;;19.08;12.55;;;24.90;71.40;;;;;;5115133;28;20038;-69
2023/08/23 01:17:07;;;;;;;17.73;13.00;;;24.80;71.50;;;;;;5110867;28;20039;-69
2023/08/23 01:19:44;;;;;;;18.58;13.13;;;24.80;71.20;;;;;;5116019;28;20016;-69
2023/08/23 01:22:16;;;;;;;19.00;13.27;;;24.70;71.50;;;;;;5115961;28;20027;-70
2023/08/23 01:24:42;;;;;;;15.88;11.45;;;24.60;71.50;;;;;;5116000;28;20429;-69
2023/08/23 01:27:08;;;;;;;16.52;12.55;;;24.60;71.70;;;;;;5115659;28;20027;-69
2023/08/23 01:29:34;;;;;;;15.40;12.18;;;24.50;71.80;;;;;;5114719;28;20030;-69
2023/08/23 01:32:14;;;;;;;18.60;13.45;;;24.50;72.00;;;;;;5115926;28;20032;-69
2023/08/23 01:34:46;;;;;;;16.40;12.43;;;24.50;72.20;;;;;;5115976;28;20077;-69
2023/08/23 01:37:13;;;;;;;18.87;14.33;;;24.40;72.20;;;;;;5115922;28;20092;-69
2023/08/23 01:39:40;;;;;;;18.15;13.48;;;24.40;72.50;;;;;;5115880;28;20069;-69
2023/08/23 01:42:06;;;;;;;17.33;11.82;;;24.40;72.50;;;;;;5115817;28;20020;-69
2023/08/23 01:44:32;;;;;;;16.10;12.23;;;24.40;72.50;;;;;;5115482;28;20487;-69
2023/08/23 01:46:58;;;;;;;21.55;13.27;;;24.40;72.30;;;;;;5116097;28;20035;-69
2023/08/23 01:49:24;;;;;;;16.30;12.15;;;24.40;72.70;;;;;;5115293;28;20060;-69
2023/08/23 01:51:50;;;;;;;15.70;12.10;;;24.40;72.50;;;;;;5115509;28;20058;-69
2023/08/23 01:54:15;;;;;;;17.88;12.25;;;24.40;72.40;;;;;;5115909;28;20102;-69
2023/08/23 01:56:41;;;;;;;16.98;11.73;;;24.40;72.40;;;;;;5115894;28;20023;-69
2023/08/23 01:59:08;;;;;;;21.85;12.60;;;24.40;72.50;;;;;;5115959;28;20106;-69
2023/08/23 02:01:34;;;;;;;15.65;11.40;;;24.40;72.50;;;;;;5115660;28;20023;-69
2023/08/23 02:03:59;;;;;;;16.17;12.38;;;24.40;72.60;;;;;;5115340;28;20023;-69
2023/08/23 02:06:25;;;;;;;16.38;12.05;;;24.40;72.50;;;;;;5115901;28;20020;-69
2023/08/23 02:08:51;;;;;;;16.77;11.50;;;24.40;72.50;;;;;;5115317;28;20028;-69
2023/08/23 02:11:17;;;;;;;16.85;12.23;;;24.40;72.40;;;;;;5115564;28;20028;-69
2023/08/23 02:13:43;;;;;;;15.45;12.20;;;24.40;72.50;;;;;;5115757;28;20027;-69
2023/08/23 02:16:09;;;;;;;18.35;12.05;;;24.40;72.50;;;;;;5115442;28;20145;-69
2023/08/23 02:18:35;;;;;;;15.80;12.45;;;24.30;72.60;;;;;;5115251;28;20345;-69
2023/08/23 02:21:01;;;;;;;15.02;11.75;;;24.30;72.70;;;;;;5116570;28;20023;-69
2023/08/23 02:23:26;;;;;;;20.08;14.35;;;24.30;72.60;;;;;;5118976;27;20152;-69
2023/08/23 02:25:53;;;;;;;18.88;13.65;;;24.30;72.50;;;;;;5118960;28;20023;-69
2023/08/23 02:28:19;;;;;;;18.38;12.48;;;24.20;72.60;;;;;;5118900;27;20454;-69
2023/08/23 02:30:45;;;;;;;16.85;12.70;;;24.20;72.70;;;;;;5118908;28;20107;-69
2023/08/23 02:33:11;;;;;;;15.20;11.55;;;24.20;72.80;;;;;;5118713;28;20031;-69
2023/08/23 02:35:46;;;;;;;16.35;11.63;;;24.20;72.80;;;;;;5118001;28;20519;-69
2023/08/23 02:38:13;;;;;;;16.92;11.77;;;24.20;72.80;;;;;;5119505;28;20041;-69
2023/08/23 02:40:42;;;;;;;17.40;12.82;;;24.20;72.80;;;;;;5118934;28;20047;-69
2023/08/23 02:43:08;;;;;;;15.25;11.68;;;24.20;72.80;;;;;;5118632;28;20030;-69
2023/08/23 02:45:39;;;;;;;16.63;12.18;;;24.10;72.80;;;;;;5118628;28;20015;-69
2023/08/23 02:48:06;;;;;;;15.63;11.73;;;24.10;72.90;;;;;;5118511;28;20491;-69
2023/08/23 02:50:32;;;;;;;15.75;11.13;;;24.10;72.90;;;;;;5118279;28;20448;-69
2023/08/23 02:52:58;;;;;;;16.67;12.38;;;24.10;73.10;;;;;;5118797;28;20027;-69
2023/08/23 02:55:24;;;;;;;16.27;11.27;;;24.00;73.00;;;;;;5118708;28;20103;-69
2023/08/23 02:57:50;;;;;;;16.58;11.15;;;24.00;73.10;;;;;;5118420;28;20114;-69
2023/08/23 03:00:16;;;;;;;16.42;10.88;;;24.00;73.20;;;;;;5118597;28;20051;-69
2023/08/23 03:02:42;;;;;;;15.10;11.63;;;24.00;73.20;;;;;;5118261;28;20030;-69
2023/08/23 03:05:08;;;;;;;17.98;11.90;;;24.00;73.30;;;;;;5118244;28;20028;-69
2023/08/23 03:07:34;;;;;;;16.98;11.85;;;24.00;73.20;;;;;;5118706;28;20015;-69
2023/08/23 03:10:01;;;;;;;16.02;12.48;;;24.00;73.20;;;;;;5118690;28;20027;-69
2023/08/23 03:12:26;;;;;;;15.45;11.57;;;24.10;73.30;;;;;;5118021;28;20022;-69
2023/08/23 03:14:53;;;;;;;17.40;12.48;;;24.10;73.20;;;;;;5118337;27;20020;-69
2023/08/23 03:17:19;;;;;;;16.02;11.70;;;24.00;73.30;;;;;;5118454;28;20051;-69
2023/08/23 03:19:45;;;;;;;18.20;11.65;;;24.00;73.20;;;;;;5118508;28;20393;-69
2023/08/23 03:22:11;;;;;;;19.05;14.45;;;24.00;73.20;;;;;;5117868;28;20416;-69
2023/08/23 03:24:37;;;;;;;15.15;12.07;;;24.00;73.30;;;;;;5117860;28;20493;-69
2023/08/23 03:27:03;;;;;;;16.27;12.43;;;24.00;73.30;;;;;;5118086;28;20041;-69
2023/08/23 03:29:29;;;;;;;17.52;13.10;;;24.00;73.20;;;;;;5117775;28;20337;-69
2023/08/23 03:31:55;;;;;;;17.25;13.43;;;24.00;73.20;;;;;;5117292;28;20099;-69
2023/08/23 03:34:20;;;;;;;15.50;11.63;;;23.90;73.50;;;;;;5118187;28;20412;-69
2023/08/23 03:36:46;;;;;;;17.05;12.15;;;23.90;73.40;;;;;;5116554;28;20051;-69
2023/08/23 03:39:12;;;;;;;16.95;12.35;;;23.90;73.40;;;;;;5118100;28;20028;-69
2023/08/23 03:41:38;;;;;;;16.60;12.32;;;23.90;73.40;;;;;;5117822;28;20445;-69
2023/08/23 03:44:04;;;;;;;20.10;14.93;;;23.90;73.40;;;;;;5117523;28;20039;-69
2023/08/23 03:46:30;;;;;;;18.02;12.70;;;23.80;73.50;;;;;;5117409;28;20129;-69
2023/08/23 03:48:56;;;;;;;19.02;14.27;;;23.80;73.60;;;;;;5117649;28;20464;-69
2023/08/23 03:51:22;;;;;;;15.40;12.38;;;23.70;73.80;;;;;;5117460;28;20040;-69
2023/08/23 03:53:48;;;;;;;18.67;14.80;;;23.70;73.80;;;;;;5117194;28;20034;-69
2023/08/23 03:56:14;;;;;;;18.10;12.50;;;23.80;74.00;;;;;;5117727;28;20024;-69
2023/08/23 03:58:40;;;;;;;17.33;12.82;;;23.70;73.80;;;;;;5117417;28;20241;-69
2023/08/23 04:01:06;;;;;;;17.15;13.70;;;23.70;73.90;;;;;;5117139;28;20020;-69
2023/08/23 04:03:32;;;;;;;19.60;12.25;;;23.70;73.80;;;;;;5116012;28;20041;-69
2023/08/23 04:06:00;;;;;;;19.42;13.07;;;23.70;73.80;;;;;;5117032;28;20103;-69
2023/08/23 04:08:27;;;;;;;16.92;12.15;;;23.70;73.80;;;;;;5116983;28;20038;-69
2023/08/23 04:10:53;;;;;;;17.90;11.90;;;23.70;73.80;;;;;;5116944;27;20030;-69
2023/08/23 04:13:18;;;;;;;18.35;11.82;;;23.60;73.80;;;;;;5116894;28;20036;-69
2023/08/23 04:15:45;;;;;;;16.42;12.00;;;23.70;74.00;;;;;;5117347;28;20028;-69
2023/08/23 04:18:11;;;;;;;15.07;11.40;;;23.70;74.00;;;;;;5117332;28;20024;-69
2023/08/23 04:20:37;;;;;;;17.58;12.18;;;23.80;73.90;;;;;;5116795;28;20021;-69
2023/08/23 04:23:04;;;;;;;16.77;11.70;;;23.80;73.90;;;;;;5116884;28;20119;-69
2023/08/23 04:25:30;;;;;;;17.60;11.48;;;23.80;73.80;;;;;;5116662;28;20016;-69
2023/08/23 04:27:56;;;;;;;15.32;11.63;;;23.80;73.70;;;;;;5117132;28;20031;-69
2023/08/23 04:30:22;;;;;;;19.20;14.15;;;23.80;73.80;;;;;;5117119;28;20016;-69
2023/08/23 04:32:48;;;;;;;20.65;13.95;;;23.80;73.90;;;;;;5116901;28;20049;-69
2023/08/23 04:35:23;;;;;;;19.45;13.90;;;23.70;74.20;;;;;;5116724;28;20016;-69
2023/08/23 04:37:49;;;;;;;16.20;11.73;;;23.60;74.40;;;;;;5116713;27;20027;-69
2023/08/23 04:40:16;;;;;;;15.77;11.88;;;23.60;74.30;;;;;;5116672;28;20061;-69
2023/08/23 04:42:42;;;;;;;17.90;12.30;;;23.70;74.30;;;;;;5116325;28;20030;-69
2023/08/23 04:45:08;;;;;;;16.65;11.82;;;23.70;74.30;;;;;;5115585;28;20019;-69
2023/08/23 04:47:34;;;;;;;14.77;11.82;;;23.80;74.00;;;;;;5116311;28;20019;-69
2023/08/23 04:50:00;;;;;;;16.08;11.32;;;23.90;74.00;;;;;;5116190;28;20135;-69
2023/08/23 04:52:28;;;;;;;15.60;11.50;;;23.90;73.70;;;;;;5116714;28;20405;-69
2023/08/23 04:54:54;;;;;;;15.90;10.57;;;23.90;73.60;;;;;;5116455;28;20024;-69
2023/08/23 04:57:20;;;;;;;16.00;11.48;;;24.00;73.50;;;;;;5116320;28;20144;-69
2023/08/23 04:59:46;;;;;;;16.73;10.93;;;24.00;73.50;;;;;;5116093;28;20032;-69
2023/08/23 05:02:12;;;;;;;16.00;11.15;;;24.00;73.40;;;;;;5116329;28;20436;-69
2023/08/23 05:04:38;;;;;;;14.48;11.13;;;24.10;73.30;;;;;;5116616;28;20120;-69
2023/08/23 05:07:04;;;;;;;15.88;11.02;;;24.20;73.10;;;;;;5116154;28;20024;-69
2023/08/23 05:09:30;;;;;;;14.98;11.60;;;24.30;72.80;;;;;;5116089;28;20054;-69
2023/08/23 05:11:56;;;;;;;16.63;11.48;;;24.50;72.80;;;;;;5116301;28;20024;-69
2023/08/23 05:14:23;;;;;;;17.38;11.73;;;24.90;72.60;;;;;;5115795;28;20042;-69
2023/08/23 05:16:50;;;;;;;15.32;11.68;;;25.80;71.50;;;;;;5116222;28;20425;-69
2023/08/23 05:19:16;;;;;;;17.10;11.02;;;26.90;69.20;;;;;;5115979;28;20049;-69
2023/08/23 05:21:42;;;;;;;14.57;10.80;;;28.00;66.70;;;;;;5115743;28;20116;-69
2023/08/23 05:24:08;;;;;;;13.90;10.73;;;29.00;64.20;;;;;;5115642;28;20486;-69
2023/08/23 05:26:34;;;;;;;22.25;11.00;;;30.10;62.10;;;;;;5115712;28;20034;-69
2023/08/23 05:29:00;;;;;;;17.38;11.57;;;31.00;60.00;;;;;;5115624;28;20102;-69
2023/08/23 05:31:26;;;;;;;17.63;11.65;;;31.90;57.90;;;;;;5114647;28;20020;-69
2023/08/23 05:33:51;;;;;;;16.85;12.43;;;32.90;56.10;;;;;;5115573;28;20063;-69
2023/08/23 05:36:17;;;;;;;18.60;12.73;;;33.80;54.60;;;;;;5116097;28;20023;-69
2023/08/23 05:38:44;;;;;;;18.25;11.80;;;34.50;52.90;;;;;;5116134;28;20027;-69
2023/08/23 05:41:10;;;;;;;18.35;12.80;;;35.30;51.60;;;;;;5115834;28;20080;-69
2023/08/23 05:43:36;;;;;;;18.55;12.95;;;36.00;50.30;;;;;;5115469;28;20444;-69
2023/08/23 05:46:03;;;;;;;18.42;13.38;;;36.80;49.00;;;;;;5115506;28;20065;-70
2023/08/23 05:48:29;;;;;;;17.55;12.27;;;37.50;47.60;;;;;;5115456;28;20031;-69
2023/08/23 05:50:55;;;;;;;15.93;11.88;;;38.20;46.40;;;;;;5114255;28;20051;-69
2023/08/23 05:53:21;;;;;;;15.70;11.55;;;38.90;45.20;;;;;;5115439;28;20032;-69
2023/08/23 05:55:50;;;;;;;16.55;13.40;;;39.60;44.10;;;;;;5117833;28;20103;-69
2023/08/23 05:58:18;;;;;;;18.48;11.77;;;40.40;42.80;;;;;;5118611;28;20408;-69
2023/08/23 06:00:47;;;;;;;15.05;11.88;;;41.00;41.70;;;;;;5119441;28;20015;-69
2023/08/23 06:03:17;;;;;;;15.25;11.65;;;41.80;40.70;;;;;;5119569;28;20020;-69
2023/08/23 06:05:45;;;;;;;15.15;11.27;;;42.50;39.60;;;;;;5119286;28;20024;-70
2023/08/23 06:08:12;;;;;;;16.50;12.50;;;43.20;38.60;;;;;;5119720;28;20030;-70
2023/08/23 06:10:38;;;;;;;13.93;10.52;;;43.70;37.70;;;;;;5119179;28;20104;-70
2023/08/23 06:13:05;;;;;;;14.43;11.90;;;44.40;37.00;;;;;;5119039;28;20020;-69
2023/08/23 06:15:31;;;;;;;15.18;11.95;;;44.80;36.20;;;;;;5119285;28;20371;-70
2023/08/23 06:17:57;;;;;;;15.75;12.07;;;45.30;35.60;;;;;;5118986;27;20027;-70
2023/08/23 06:20:23;;;;;;;14.30;12.15;;;45.70;35.10;;;;;;5118923;28;20019;-70
2023/08/23 06:22:49;;;;;;;17.38;11.65;;;46.20;34.50;;;;;;5118898;28;20035;-70
2023/08/23 06:25:15;;;;;;;13.25;10.70;;;46.50;33.60;;;;;;5118878;28;20054;-70
2023/08/23 06:27:41;;;;;;;14.15;11.73;;;46.90;33.40;;;;;;5118922;28;20456;-70
2023/08/23 06:30:07;;;;;;;15.35;11.70;;;47.30;32.80;;;;;;5119134;28;20103;-70
2023/08/23 06:32:33;;;;;;;14.85;11.75;;;47.60;32.20;;;;;;5119304;28;20038;-70
2023/08/23 06:34:59;;;;;;;17.67;12.85;;;48.00;31.70;;;;;;5118784;28;20099;-70
2023/08/23 06:37:25;;;;;;;18.10;12.32;;;48.40;31.10;;;;;;5119163;28;20034;-70
2023/08/23 06:39:51;;;;;;;15.63;12.55;;;48.70;30.80;;;;;;5119118;27;20023;-70
2023/08/23 06:42:17;;;;;;;13.52;11.98;;;49.00;30.50;;;;;;5118549;28;20020;-70
2023/08/23 06:44:44;;;;;;;17.33;12.05;;;49.40;30.30;;;;;;5119128;27;20106;-70
2023/08/23 06:47:10;;;;;;;18.42;14.38;;;49.80;29.90;;;;;;5118892;28;20024;-70
2023/08/23 06:49:36;;;;;;;20.15;14.73;;;50.10;29.00;;;;;;5118230;28;20040;-70
2023/08/23 06:52:02;;;;;;;21.85;15.77;;;50.30;28.70;;;;;;5118744;28;20445;-70
2023/08/23 06:54:28;;;;;;;17.42;14.50;;;50.40;27.90;;;;;;5118280;28;20090;-70
2023/08/23 06:56:54;;;;;;;19.33;14.18;;;50.30;28.00;;;;;;5118279;28;20432;-70
2023/08/23 06:59:20;;;;;;;18.52;13.98;;;50.20;28.20;;;;;;5118266;28;20023;-70
2023/08/23 07:01:47;;;;;;;18.38;12.20;;;50.20;28.00;;;;;;5117200;28;20019;-70
2023/08/23 07:04:13;;;;;;;12.93;11.23;;;50.30;28.20;;;;;;5118202;28;20051;-70
2023/08/23 07:06:39;;;;;;;13.32;9.77;;;50.50;28.10;;;;;;5117824;28;20039;-70
2023/08/23 07:09:06;;;;;;;15.77;10.02;;;50.60;27.90;;;;;;5118123;28;20509;-70
2023/08/23 07:11:32;;;;;;;12.02;8.77;;;50.70;27.60;;;;;;5118012;28;20096;-70
2023/08/23 07:13:58;;;;;;;11.95;8.88;;;50.70;27.60;;;;;;5118167;28;20028;-70
2023/08/23 07:16:24;;;;;;;16.00;9.25;;;50.70;27.40;;;;;;5118123;28;20081;-70
2023/08/23 07:18:50;;;;;;;13.93;8.25;;;50.80;27.30;;;;;;5118103;28;20096;-70
2023/08/23 07:21:16;;;;;;;17.17;8.52;;;50.80;27.00;;;;;;5118354;28;20433;-70
2023/08/23 07:23:42;;;;;;;13.90;8.90;;;50.10;26.90;;;;;;5117658;28;20038;-70
2023/08/23 07:26:09;;;;;;;14.48;9.02;;;48.80;27.60;;;;;;5117999;28;20020;-70
2023/08/23 07:28:35;;;;;;;13.60;8.85;;;47.20;28.50;;;;;;5117628;28;20035;-70
2023/08/23 07:31:03;;;;;;;16.42;8.35;;;45.60;29.90;;;;;;5117871;28;20024;-70
2023/08/23 07:33:29;;;;;;;13.63;9.05;;;44.40;31.30;;;;;;5117541;28;20081;-70
2023/08/23 07:35:59;;;;;;;12.70;9.45;;;43.40;32.30;;;;;;5117747;28;20090;-70
2023/08/23 07:38:26;;;;;;;15.70;9.80;;;42.50;32.80;;;;;;5118091;28;20429;-70
2023/08/23 07:41:00;;;;;;;16.73;11.07;;;41.90;34.00;;;;;;5117741;27;20061;-70
2023/08/23 07:43:26;;;;;;;17.27;12.50;;;41.40;34.50;;;;;;5117348;28;20024;-70
2023/08/23 07:45:57;;;;;;;17.15;12.05;;;41.00;35.30;;;;;;5117380;28;20051;-70
2023/08/23 07:48:23;;;;;;;20.00;13.68;;;40.60;35.90;;;;;;5117775;28;20031;-69
2023/08/23 07:50:51;;;;;;;18.23;13.82;;;40.30;36.40;;;;;;5117185;28;20051;-69
2023/08/23 07:53:18;;;;;;;19.83;12.95;;;40.10;36.80;;;;;;5117482;27;20027;-69
2023/08/23 07:55:44;;;;;;;16.45;11.45;;;39.90;37.40;;;;;;5117162;28;20038;-69
2023/08/23 07:58:11;;;;;;;18.17;12.70;;;39.70;37.60;;;;;;5117681;27;20094;-69
2023/08/23 08:00:37;;;;;;;16.73;12.57;;;39.60;37.80;;;;;;5117648;28;20031;-69
2023/08/23 08:03:03;;;;;;;16.75;12.32;;;39.50;37.80;;;;;;5117034;28;20038;-69
2023/08/23 08:05:30;;;;;;;17.40;12.48;;;39.40;38.00;;;;;;5117052;28;20099;-69
2023/08/23 08:07:56;;;;;;;15.63;11.32;;;39.30;38.10;;;;;;5117241;28;20023;-69
2023/08/23 08:10:23;;;;;;;16.85;12.15;;;39.20;38.20;;;;;;5117179;28;20028;-69
2023/08/23 08:12:49;;;;;;;19.05;12.15;;;39.20;38.40;;;;;;5117116;28;20375;-69
2023/08/23 08:15:15;;;;;;;17.25;11.82;;;39.00;38.60;;;;;;5117092;28;20107;-69
2023/08/23 08:17:43;;;;;;;15.00;11.65;;;38.90;38.80;;;;;;5115552;28;20024;-69
2023/08/23 08:20:09;;;;;;;14.43;12.00;;;38.90;39.10;;;;;;5116194;28;20023;-69
2023/08/23 08:22:37;;;;;;;14.35;12.02;;;38.90;39.20;;;;;;5116999;28;20046;-69
2023/08/23 08:25:04;;;;;;;15.65;11.75;;;38.80;39.30;;;;;;5115817;28;20038;-69
2023/08/23 08:27:31;;;;;;;13.90;11.52;;;38.70;39.50;;;;;;5116636;28;20098;-69
2023/08/23 08:29:57;;;;;;;14.35;11.18;;;38.70;39.60;;;;;;5116615;28;20333;-69
2023/08/23 08:32:24;;;;;;;13.95;10.80;;;38.70;39.80;;;;;;5117019;28;20038;-69
2023/08/23 08:34:50;;;;;;;12.70;10.73;;;38.60;39.90;;;;;;5115542;28;20028;-69
2023/08/23 08:37:16;;;;;;;15.95;10.55;;;38.60;40.00;;;;;;5116304;28;20080;-69
2023/08/23 08:39:42;;;;;;;12.82;10.20;;;38.60;39.60;;;;;;5116439;28;20023;-69
2023/08/23 08:42:08;;;;;;;13.50;9.98;;;38.50;39.50;;;;;;5116929;28;20024;-69
2023/08/23 08:44:35;;;;;;;16.23;10.52;;;38.50;39.70;;;;;;5116500;28;20015;-69
2023/08/23 08:47:01;;;;;;;12.70;10.65;;;38.60;39.60;;;;;;5116567;28;20059;-69
2023/08/23 08:49:27;;;;;;;12.30;9.75;;;38.50;39.70;;;;;;5116538;28;20093;-69
2023/08/23 08:52:01;;;;;;;13.18;9.80;;;38.50;39.70;;;;;;5116041;28;20054;-69
2023/08/23 08:54:28;;;;;;;12.32;10.02;;;38.50;39.30;;;;;;5116378;28;20401;-69
2023/08/23 08:56:54;;;;;;;14.23;10.57;;;38.50;39.50;;;;;;5116103;28;20027;-69
2023/08/23 08:59:21;;;;;;;13.73;9.30;;;38.50;39.50;;;;;;5116380;28;20024;-69
2023/08/23 09:01:49;;;;;;;15.10;9.65;;;38.50;39.30;;;;;;5115992;28;20038;-69
2023/08/23 09:04:16;;;;;;;11.73;9.23;;;38.50;39.50;;;;;;5116414;28;20024;-69
2023/08/23 09:06:45;;;;;;;12.23;8.90;;;38.50;39.60;;;;;;5116022;28;20081;-69
2023/08/23 09:09:12;;;;;;;11.15;9.57;;;38.50;39.50;;;;;;5115866;28;20456;-69
2023/08/23 09:11:38;;;;;;;10.25;9.13;;;38.50;39.30;;;;;;5115939;28;20030;-69
2023/08/23 09:14:14;;;;;;;10.45;9.35;;;38.50;39.30;;;;;;5115926;28;20348;-69
2023/08/23 09:16:41;;;;;;;10.93;8.77;;;38.50;39.40;;;;;;5114886;28;20117;-69
2023/08/23 09:19:11;;;;;;;12.95;9.35;;;38.50;39.30;;;;;;5116102;28;20502;-69
2023/08/23 09:21:45;;;;;;;10.93;9.82;;;38.50;39.20;;;;;;5116569;28;20030;-69
2023/08/23 09:24:12;;;;;;;12.20;9.68;;;38.50;38.70;;;;;;5116246;28;20028;-70
2023/08/23 09:26:39;;;;;;;10.70;9.55;;;38.40;38.60;;;;;;5115943;28;20031;-69
2023/08/23 09:29:05;;;;;;;12.35;9.60;;;38.40;38.70;;;;;;5116255;28;20055;-69
2023/08/23 09:31:31;;;;;;;11.00;9.38;;;38.30;39.00;;;;;;5115508;28;20026;-69
2023/08/23 09:34:00;;;;;;;11.18;8.45;;;38.30;38.90;;;;;;5114640;28;20432;-69
2023/08/23 09:36:41;;;;;;;11.93;9.80;;;38.40;38.60;;;;;;5115493;28;20023;-69
2023/08/23 09:39:11;;;;;;;10.02;8.50;;;38.40;38.10;;;;;;5116198;28;20028;-69
2023/08/23 09:41:39;;;;;;;11.85;9.63;;;38.40;38.80;;;;;;5115592;28;20376;-69
2023/08/23 09:44:06;;;;;;;11.70;9.23;;;38.30;38.50;;;;;;5114504;28;20043;-69
2023/08/23 09:46:35;;;;;;;12.32;10.30;;;38.20;38.70;;;;;;5115837;28;20024;-69
2023/08/23 09:49:05;;;;;;;14.88;10.27;;;38.20;38.80;;;;;;5115481;28;20027;-69
2023/08/23 09:51:36;;;;;;;14.13;10.85;;;38.00;39.10;;;;;;5114525;28;20044;-69
2023/08/23 09:54:12;;;;;;;15.10;10.40;;;38.00;39.30;;;;;;5115411;28;20039;-69
2023/08/23 09:56:42;;;;;;;14.18;10.75;;;37.90;39.20;;;;;;5115674;28;20337;-69
2023/08/23 09:59:10;;;;;;;14.48;10.63;;;37.90;39.20;;;;;;5115374;28;20028;-69
2023/08/23 10:01:38;;;;;;;14.93;10.77;;;37.70;39.60;;;;;;5115657;28;20424;-69
2023/08/23 10:04:05;;;;;;;13.82;10.73;;;37.60;39.70;;;;;;5115419;28;20020;-69
2023/08/23 10:06:32;;;;;;;13.75;10.20;;;37.50;39.80;;;;;;5114467;28;20103;-69
2023/08/23 10:08:58;;;;;;;16.38;10.60;;;37.50;39.90;;;;;;5115895;28;20024;-69
2023/08/23 10:11:27;;;;;;;11.85;9.25;;;37.40;40.00;;;;;;5115237;28;20073;-69
2023/08/23 10:13:54;;;;;;;12.95;8.57;;;37.40;40.00;;;;;;5115236;28;20045;-69
2023/08/23 10:16:22;;;;;;;11.48;8.80;;;37.40;40.10;;;;;;5115222;28;20016;-69
2023/08/23 10:18:50;;;;;;;9.63;8.60;;;37.40;40.00;;;;;;5115794;28;20072;-69
2023/08/23 10:21:17;;;;;;;11.77;9.82;;;37.50;39.90;;;;;;5115527;28;20321;-69
2023/08/23 10:23:43;;;;;;;12.82;9.80;;;37.50;39.80;;;;;;5115294;28;20444;-69
2023/08/23 10:26:19;;;;;;;12.18;9.57;;;37.50;39.40;;;;;;5115169;28;20030;-69
2023/08/23 10:28:51;;;;;;;11.27;9.60;;;37.50;39.60;;;;;;5115207;28;20023;-69
2023/08/23 10:31:27;;;;;;;13.30;9.17;;;37.50;39.30;;;;;;5115227;28;20377;-69
2023/08/23 10:33:58;;;;;;;10.68;8.57;;;37.40;39.30;;;;;;5114981;28;20257;-69
2023/08/23 10:36:27;;;;;;;10.32;8.00;;;37.40;39.00;;;;;;5114964;28;20027;-69
2023/08/23 10:38:55;;;;;;;10.10;8.68;;;37.40;38.70;;;;;;5114159;28;20459;-69
2023/08/23 10:41:25;;;;;;;12.18;8.23;;;37.30;38.60;;;;;;5097459;28;20091;-69
2023/08/23 10:43:52;;;;;;;12.05;8.52;;;37.40;38.50;;;;;;5118780;28;20080;-69
2023/08/23 10:46:21;;;;;;;10.25;8.07;;;37.30;38.20;;;;;;5118848;28;20100;-69
2023/08/23 10:48:48;;;;;;;11.00;8.15;;;37.30;38.30;;;;;;5118780;28;20039;-69
2023/08/23 10:51:15;;;;;;;9.93;7.90;;;37.20;38.20;;;;;;5118201;28;20079;-69
2023/08/23 10:53:42;;;;;;;10.70;7.60;;;37.10;38.00;;;;;;5117422;28;20377;-69
2023/08/23 10:56:10;;;;;;;8.52;7.03;;;37.10;37.60;;;;;;5118273;28;20042;-69
2023/08/23 10:58:36;;;;;;;10.15;7.05;;;37.00;37.10;;;;;;5118653;28;20035;-69
2023/08/23 11:01:03;;;;;;;8.40;6.93;;;37.00;36.80;;;;;;5118812;28;20099;-69
2023/08/23 11:03:31;;;;;;;7.97;6.53;;;37.00;36.70;;;;;;5118238;28;20023;-69
2023/08/23 11:05:57;;;;;;;11.80;6.28;;;37.10;36.50;;;;;;5118776;28;20024;-69
2023/08/23 11:08:23;;;;;;;8.95;6.25;;;37.10;36.10;;;;;;5118201;28;20019;-69
2023/08/23 11:10:50;;;;;;;7.47;6.28;;;37.20;35.70;;;;;;5118404;28;20039;-69
2023/08/23 11:13:16;;;;;;;7.93;6.25;;;37.20;35.30;;;;;;5117007;28;20471;-69
2023/08/23 11:15:45;;;;;;;8.10;6.40;;;37.20;35.20;;;;;;5117925;28;20042;-69
2023/08/23 11:18:13;;;;;;;7.65;5.68;;;37.20;35.20;;;;;;5118028;28;20024;-69
2023/08/23 11:20:39;;;;;;;10.02;6.63;;;37.30;35.10;;;;;;5117665;28;20081;-69
2023/08/23 11:23:06;;;;;;;8.02;6.43;;;37.40;35.10;;;;;;5118148;28;20337;-69
2023/08/23 11:25:32;;;;;;;11.50;7.25;;;37.40;35.60;;;;;;5118410;28;20024;-69
2023/08/23 11:27:59;;;;;;;9.65;7.55;;;37.40;35.90;;;;;;5117795;28;20038;-69
2023/08/23 11:30:26;;;;;;;12.95;8.57;;;37.40;36.60;;;;;;5118339;28;20020;-69
2023/08/23 11:32:55;;;;;;;11.80;8.38;;;37.40;37.10;;;;;;5117938;28;20035;-69
2023/08/23 11:35:24;;;;;;;10.30;8.15;;;37.40;37.40;;;;;;5117717;28;20050;-69
2023/08/23 11:37:52;;;;;;;11.73;8.27;;;37.40;37.70;;;;;;5117545;28;20459;-69
2023/08/23 11:40:18;;;;;;;10.40;7.15;;;37.30;38.00;;;;;;5117602;28;20037;-69
2023/08/23 11:42:45;;;;;;;12.05;8.10;;;37.30;38.20;;;;;;5117983;28;20031;-69
2023/08/23 11:45:11;;;;;;;11.32;8.02;;;37.40;38.20;;;;;;5117750;28;20066;-69
2023/08/23 11:47:40;;;;;;;8.55;7.45;;;37.40;38.00;;;;;;5117395;28;20027;-69
2023/08/23 11:50:07;;;;;;;9.35;7.60;;;37.40;38.00;;;;;;5117122;28;20113;-69
2023/08/23 11:52:33;;;;;;;8.88;6.97;;;37.40;37.70;;;;;;5117655;28;20028;-69
2023/08/23 11:55:02;;;;;;;10.40;7.25;;;37.40;37.30;;;;;;5117308;28;20020;-69
2023/08/23 11:57:34;;;;;;;8.57;6.95;;;37.40;37.20;;;;;;5117159;28;20032;-69
2023/08/23 12:00:00;;;;;;;8.67;6.97;;;37.40;37.00;;;;;;5117836;28;20510;-69
2023/08/23 12:02:26;;;;;;;8.80;6.90;;;37.50;37.20;;;;;;5117114;28;20015;-69
2023/08/23 12:04:52;;;;;;;10.73;7.10;;;37.50;36.90;;;;;;5117580;28;20027;-69
2023/08/23 12:07:18;;;;;;;11.30;7.50;;;37.50;36.50;;;;;;5116384;28;20341;-69
2023/08/23 12:09:44;;;;;;;9.38;7.32;;;37.50;36.80;;;;;;5116957;27;20027;-69
2023/08/23 12:12:11;;;;;;;9.98;7.07;;;37.50;36.50;;;;;;5117010;28;20382;-69
2023/08/23 12:14:37;;;;;;;9.00;7.03;;;37.50;36.50;;;;;;5116742;28;20036;-69
2023/08/23 12:17:03;;;;;;;10.02;7.28;;;37.50;36.20;;;;;;5116809;28;20024;-69
2023/08/23 12:19:35;;;;;;;10.82;7.70;;;37.60;36.30;;;;;;5117319;28;20024;-69
2023/08/23 12:22:03;;;;;;;9.73;8.00;;;37.60;36.20;;;;;;5116713;28;20031;-69
2023/08/23 12:24:29;;;;;;;11.40;8.55;;;37.60;36.20;;;;;;5116593;28;20028;-69
2023/08/23 12:26:55;;;;;;;12.40;7.82;;;37.60;36.20;;;;;;5117404;28;20034;-69
2023/08/23 12:29:22;;;;;;;9.20;7.47;;;37.60;36.20;;;;;;5117179;28;20106;-69